createdAt,value
2017-08-21T00:00:24.274Z,12.40
2017-08-21T00:02:51.803Z,12.30
2017-08-21T00:05:19.359Z,12.30
2017-08-21T00:07:46.886Z,12.30
2017-08-21T00:10:14.446Z,12.30
2017-08-21T00:12:41.974Z,12.30
2017-08-21T00:15:09.526Z,12.30
2017-08-21T00:17:37.066Z,12.30
2017-08-21T00:20:04.610Z,12.30
2017-08-21T00:22:32.140Z,12.30
2017-08-21T00:24:59.691Z,12.40
2017-08-21T00:27:27.226Z,12.30
2017-08-21T00:29:54.784Z,12.30
2017-08-21T00:32:22.314Z,12.40
2017-08-21T00:34:49.863Z,12.40
2017-08-21T00:37:17.389Z,12.40
2017-08-21T00:39:44.946Z,12.40
2017-08-21T00:42:12.478Z,12.40
2017-08-21T00:44:40.039Z,12.40
2017-08-21T00:47:07.575Z,12.40
2017-08-21T00:49:35.123Z,12.40
2017-08-21T00:52:02.648Z,12.50
2017-08-21T00:54:30.208Z,12.40
2017-08-21T00:56:57.739Z,12.50
2017-08-21T00:59:25.266Z,12.40
2017-08-21T01:01:52.811Z,12.40
2017-08-21T01:04:20.343Z,12.40
2017-08-21T01:06:47.886Z,12.40
2017-08-21T01:09:15.424Z,12.40
2017-08-21T01:11:42.969Z,12.50
2017-08-21T01:14:10.496Z,12.50
2017-08-21T01:16:38.056Z,12.50
2017-08-21T01:19:05.583Z,12.60
2017-08-21T01:21:33.134Z,12.50
2017-08-21T01:24:00.675Z,12.50
2017-08-21T01:26:28.234Z,12.50
2017-08-21T01:28:55.758Z,12.40
2017-08-21T01:31:23.302Z,12.40
2017-08-21T01:33:50.832Z,12.40
2017-08-21T01:36:18.387Z,12.40
2017-08-21T01:39:06.703Z,12.40
2017-08-21T01:41:34.255Z,12.40
2017-08-21T01:44:01.775Z,12.40
2017-08-21T01:46:29.322Z,12.50
2017-08-21T01:48:56.850Z,12.50
2017-08-21T01:51:24.407Z,12.50
2017-08-21T01:53:51.934Z,12.50
2017-08-21T01:56:19.483Z,12.40
2017-08-21T01:58:47.006Z,12.40
2017-08-21T02:01:14.567Z,12.50
2017-08-21T02:03:42.104Z,12.40
2017-08-21T02:06:09.640Z,12.40
2017-08-21T02:08:37.186Z,12.40
2017-08-21T02:11:04.711Z,12.40
2017-08-21T02:13:32.278Z,12.40
2017-08-21T02:15:59.812Z,12.30
2017-08-21T02:18:27.368Z,12.30
2017-08-21T02:20:54.899Z,12.50
2017-08-21T02:23:22.459Z,12.60
2017-08-21T02:25:49.990Z,12.50
2017-08-21T02:28:17.539Z,12.40
2017-08-21T02:30:45.062Z,12.40
2017-08-21T02:33:12.627Z,12.50
2017-08-21T02:35:40.168Z,12.50
2017-08-21T02:38:19.542Z,12.50
2017-08-21T02:40:47.081Z,12.40
2017-08-21T02:43:14.636Z,12.40
2017-08-21T02:45:42.171Z,12.40
2017-08-21T02:48:18.053Z,12.40
2017-08-21T02:50:45.591Z,12.40
2017-08-21T02:53:13.150Z,12.40
2017-08-21T02:55:40.678Z,12.40
2017-08-21T02:58:08.228Z,12.40
2017-08-21T03:00:35.763Z,12.30
2017-08-21T03:03:03.331Z,12.30
2017-08-21T03:05:30.869Z,12.30
2017-08-21T03:07:58.429Z,12.30
2017-08-21T03:10:25.966Z,12.30
2017-08-21T03:12:53.528Z,12.30
2017-08-21T03:15:21.064Z,12.30
2017-08-21T03:17:48.601Z,12.30
2017-08-21T03:20:16.211Z,12.30
2017-08-21T03:22:43.742Z,12.30
2017-08-21T03:25:11.295Z,12.30
2017-08-21T03:27:38.848Z,12.40
2017-08-21T03:30:06.418Z,12.40
2017-08-21T03:32:33.951Z,12.40
2017-08-21T03:35:01.504Z,12.40
2017-08-21T03:37:29.031Z,12.40
2017-08-21T03:39:56.582Z,12.40
2017-08-21T03:42:24.111Z,12.40
2017-08-21T03:44:51.679Z,12.40
2017-08-21T03:47:19.219Z,12.40
2017-08-21T03:49:46.788Z,12.40
2017-08-21T03:52:14.323Z,12.40
2017-08-21T03:54:41.874Z,12.30
2017-08-21T03:57:09.406Z,12.30
2017-08-21T03:59:36.958Z,12.30
2017-08-21T04:02:04.490Z,12.20
2017-08-21T04:04:32.039Z,12.20
2017-08-21T04:06:59.575Z,12.10
2017-08-21T04:09:27.130Z,12.10
2017-08-21T04:11:54.662Z,12.20
2017-08-21T04:14:22.216Z,12.20
2017-08-21T04:16:49.743Z,12.20
2017-08-21T04:19:17.271Z,12.20
2017-08-21T04:21:44.828Z,12.20
2017-08-21T04:24:12.351Z,12.20
2017-08-21T04:26:39.905Z,12.20
2017-08-21T04:29:07.431Z,12.20
2017-08-21T04:31:34.991Z,12.30
2017-08-21T04:34:02.523Z,12.30
2017-08-21T04:36:30.075Z,12.30
2017-08-21T04:38:57.612Z,12.30
2017-08-21T04:41:25.167Z,12.20
2017-08-21T04:43:52.711Z,12.20
2017-08-21T04:46:20.322Z,12.10
2017-08-21T04:48:47.858Z,12.20
2017-08-21T04:51:15.419Z,12.20
2017-08-21T04:53:42.996Z,12.40
2017-08-21T04:56:10.551Z,12.40
2017-08-21T04:58:38.084Z,12.40
2017-08-21T05:01:05.630Z,12.30
2017-08-21T05:03:33.155Z,12.40
2017-08-21T05:06:01.039Z,12.50
2017-08-21T05:08:28.582Z,12.70
2017-08-21T05:10:56.140Z,12.80
2017-08-21T05:13:23.657Z,12.80
2017-08-21T05:15:51.230Z,12.70
2017-08-21T05:18:18.763Z,12.70
2017-08-21T05:20:46.294Z,12.70
2017-08-21T05:23:13.846Z,12.60
2017-08-21T05:25:41.374Z,12.60
2017-08-21T05:28:08.919Z,12.60
2017-08-21T05:30:36.451Z,12.60
2017-08-21T05:33:04.011Z,12.70
2017-08-21T05:35:31.547Z,12.80
2017-08-21T05:37:59.099Z,12.90
2017-08-21T05:40:26.626Z,12.90
2017-08-21T05:42:54.188Z,13.00
2017-08-21T05:45:21.721Z,13.10
2017-08-21T05:47:49.270Z,13.00
2017-08-21T05:50:16.790Z,12.90
2017-08-21T05:52:44.376Z,12.90
2017-08-21T05:55:11.915Z,12.90
2017-08-21T05:57:39.470Z,12.90
2017-08-21T06:00:07.004Z,13.00
2017-08-21T06:02:34.565Z,13.20
2017-08-21T06:05:02.099Z,13.40
2017-08-21T06:07:29.654Z,13.40
2017-08-21T06:09:57.183Z,13.50
2017-08-21T06:12:24.743Z,13.50
2017-08-21T06:14:52.963Z,13.60
2017-08-21T06:17:20.997Z,13.30
2017-08-21T06:19:48.944Z,13.40
2017-08-21T06:22:16.470Z,13.60
2017-08-21T06:24:44.032Z,13.70
2017-08-21T06:29:36.975Z,13.70
2017-08-21T06:32:04.508Z,13.90
2017-08-21T06:34:32.091Z,13.70
2017-08-21T06:36:59.623Z,13.70
2017-08-21T06:39:27.175Z,13.70
2017-08-21T06:41:54.731Z,13.70
2017-08-21T06:44:22.289Z,14.00
2017-08-21T06:46:49.824Z,14.10
2017-08-21T06:49:17.374Z,14.20
2017-08-21T06:51:44.905Z,14.40
2017-08-21T06:54:12.464Z,14.30
2017-08-21T06:56:40.002Z,14.30
2017-08-21T06:59:07.564Z,14.20
2017-08-21T07:01:35.106Z,14.10
2017-08-21T07:04:02.662Z,14.20
2017-08-21T07:06:30.218Z,14.20
2017-08-21T07:08:57.788Z,14.30
2017-08-21T07:11:25.317Z,14.20
2017-08-21T07:13:52.877Z,14.40
2017-08-21T07:16:20.415Z,14.60
2017-08-21T07:18:47.946Z,14.70
2017-08-21T07:21:15.495Z,14.80
2017-08-21T07:23:43.018Z,15.10
2017-08-21T07:26:10.578Z,15.30
2017-08-21T07:28:38.106Z,15.20
2017-08-21T07:31:05.659Z,15.30
2017-08-21T07:33:33.190Z,15.40
2017-08-21T07:36:00.742Z,15.40
2017-08-21T07:38:28.266Z,15.60
2017-08-21T07:40:55.814Z,15.90
2017-08-21T07:43:23.346Z,16.30
2017-08-21T07:45:50.903Z,16.60
2017-08-21T07:48:18.438Z,16.90
2017-08-21T07:50:46.014Z,16.90
2017-08-21T07:53:13.578Z,16.90
2017-08-21T07:55:41.151Z,16.90
2017-08-21T07:58:08.697Z,17.10
2017-08-21T08:00:36.277Z,17.60
2017-08-21T08:03:03.818Z,17.50
2017-08-21T08:05:31.370Z,17.40
2017-08-21T08:07:58.910Z,17.40
2017-08-21T08:10:26.466Z,17.20
2017-08-21T08:12:54.004Z,17.30
2017-08-21T08:15:21.559Z,17.20
2017-08-21T08:17:49.099Z,17.40
2017-08-21T08:20:16.623Z,17.60
2017-08-21T08:22:44.188Z,17.40
2017-08-21T08:25:11.727Z,17.40
2017-08-21T08:27:39.287Z,17.40
2017-08-21T08:30:06.827Z,17.60
2017-08-21T08:32:34.423Z,17.50
2017-08-21T08:35:01.951Z,17.90
2017-08-21T08:37:29.506Z,18.10
2017-08-21T08:39:57.022Z,18.10
2017-08-21T08:42:24.567Z,18.20
2017-08-21T08:44:52.090Z,18.20
2017-08-21T08:47:19.633Z,18.30
2017-08-21T08:49:47.154Z,18.50
2017-08-21T08:52:14.698Z,18.40
2017-08-21T08:54:42.231Z,18.40
2017-08-21T08:57:09.779Z,18.40
2017-08-21T08:59:37.304Z,18.50
2017-08-21T09:02:04.850Z,18.80
2017-08-21T09:04:32.384Z,19.30
2017-08-21T09:06:59.935Z,19.90
2017-08-21T09:09:27.467Z,20.00
2017-08-21T09:11:55.014Z,20.40
2017-08-21T09:14:22.537Z,20.60
2017-08-21T09:16:50.099Z,20.90
2017-08-21T09:19:17.622Z,21.20
2017-08-21T09:21:45.149Z,20.70
2017-08-21T09:24:12.695Z,20.30
2017-08-21T09:26:40.220Z,20.70
2017-08-21T09:29:07.766Z,21.10
2017-08-21T09:31:35.297Z,21.00
2017-08-21T09:34:02.844Z,20.80
2017-08-21T09:36:30.363Z,20.70
2017-08-21T09:38:57.924Z,19.80
2017-08-21T09:41:25.451Z,19.50
2017-08-21T09:43:53.006Z,19.70
2017-08-21T09:46:20.530Z,19.30
2017-08-21T09:48:48.074Z,19.40
2017-08-21T09:51:15.594Z,19.50
2017-08-21T09:53:43.142Z,20.30
2017-08-21T09:56:10.670Z,20.70
2017-08-21T09:58:38.219Z,20.30
2017-08-21T10:01:05.743Z,19.90
2017-08-21T10:03:33.313Z,19.00
2017-08-21T10:06:00.838Z,19.40
2017-08-21T10:08:28.361Z,20.00
2017-08-21T10:10:55.942Z,20.60
2017-08-21T10:13:23.470Z,20.80
2017-08-21T10:15:51.023Z,21.00
2017-08-21T10:18:18.552Z,21.20
2017-08-21T10:20:46.116Z,21.20
2017-08-21T10:23:13.662Z,21.10
2017-08-21T10:25:41.214Z,20.90
2017-08-21T10:28:08.742Z,20.80
2017-08-21T10:30:36.291Z,20.80
2017-08-21T10:33:03.824Z,21.10
2017-08-21T10:35:31.380Z,19.90
2017-08-21T10:37:58.907Z,19.60
2017-08-21T10:40:26.456Z,19.20
2017-08-21T10:42:53.984Z,19.00
2017-08-21T10:45:21.530Z,19.30
2017-08-21T10:47:49.984Z,19.10
2017-08-21T10:50:17.530Z,18.60
2017-08-21T10:52:45.053Z,18.10
2017-08-21T10:55:12.599Z,18.20
2017-08-21T10:57:40.110Z,18.30
2017-08-21T11:00:07.655Z,18.50
2017-08-21T11:02:35.192Z,18.70
2017-08-21T11:05:02.747Z,19.50
2017-08-21T11:07:30.277Z,19.90
2017-08-21T11:09:57.826Z,19.70
2017-08-21T11:12:25.363Z,19.90
2017-08-21T11:14:52.901Z,20.40
2017-08-21T11:17:20.474Z,20.10
2017-08-21T11:19:48.056Z,19.90
2017-08-21T11:22:15.618Z,19.80
2017-08-21T11:24:43.143Z,19.60
2017-08-21T11:27:10.706Z,20.40
2017-08-21T11:29:38.255Z,20.10
2017-08-21T11:32:05.809Z,20.40
2017-08-21T11:34:33.352Z,20.60
2017-08-21T11:37:00.918Z,20.30
2017-08-21T11:39:28.448Z,20.50
2017-08-21T11:41:56.018Z,21.20
2017-08-21T11:44:23.564Z,21.10
2017-08-21T11:46:51.127Z,21.30
2017-08-21T11:49:18.661Z,21.10
2017-08-21T11:51:46.207Z,21.80
2017-08-21T11:54:13.738Z,21.80
2017-08-21T11:56:41.299Z,21.20
2017-08-21T11:59:08.832Z,21.10
2017-08-21T12:01:36.447Z,21.30
2017-08-21T12:04:04.082Z,21.20
2017-08-21T12:06:31.997Z,20.70
2017-08-21T12:08:59.562Z,20.60
2017-08-21T12:11:27.101Z,20.90
2017-08-21T12:13:54.642Z,20.90
2017-08-21T12:16:22.176Z,20.40
2017-08-21T12:18:49.727Z,20.60
2017-08-21T12:21:17.267Z,20.60
2017-08-21T12:23:44.839Z,20.20
2017-08-21T12:26:12.363Z,20.60
2017-08-21T12:28:39.937Z,20.60
2017-08-21T12:31:07.475Z,20.30
2017-08-21T12:33:35.044Z,20.20
2017-08-21T12:36:02.583Z,19.70
2017-08-21T12:38:30.163Z,19.40
2017-08-21T12:40:57.740Z,19.60
2017-08-21T12:43:25.295Z,19.70
2017-08-21T12:45:52.934Z,19.40
2017-08-21T12:48:20.503Z,19.90
2017-08-21T12:50:48.044Z,20.20
2017-08-21T12:53:15.592Z,20.20
2017-08-21T12:55:43.144Z,20.00
2017-08-21T12:58:10.699Z,19.70
2017-08-21T13:00:38.227Z,19.70
2017-08-21T13:03:05.810Z,20.00
2017-08-21T13:05:33.337Z,20.10
2017-08-21T13:08:00.951Z,20.00
2017-08-21T13:10:28.478Z,19.90
2017-08-21T13:12:56.140Z,20.00
2017-08-21T13:15:23.818Z,20.20
2017-08-21T13:17:51.349Z,20.60
2017-08-21T13:20:18.897Z,21.00
2017-08-21T13:22:46.434Z,21.40
2017-08-21T13:25:13.991Z,21.20
2017-08-21T13:27:41.633Z,21.50
2017-08-21T13:30:09.181Z,21.20
2017-08-21T13:32:36.717Z,20.90
2017-08-21T13:35:04.274Z,20.70
2017-08-21T13:37:31.893Z,20.60
2017-08-21T13:39:59.454Z,20.40
2017-08-21T13:42:26.981Z,20.70
2017-08-21T13:44:54.527Z,21.10
2017-08-21T13:47:22.069Z,21.60
2017-08-21T13:49:49.615Z,22.00
2017-08-21T13:52:17.134Z,22.60
2017-08-21T13:54:44.683Z,22.30
2017-08-21T13:57:12.223Z,21.80
2017-08-21T13:59:39.775Z,21.70
2017-08-21T14:02:07.302Z,21.60
2017-08-21T14:04:34.863Z,21.40
2017-08-21T14:07:02.386Z,21.40
2017-08-21T14:09:29.955Z,21.40
2017-08-21T14:11:57.487Z,21.20
2017-08-21T14:14:25.012Z,20.80
2017-08-21T14:16:52.559Z,20.20
2017-08-21T14:19:20.082Z,20.50
2017-08-21T14:21:47.643Z,20.90
2017-08-21T14:24:15.177Z,21.50
2017-08-21T14:26:42.735Z,21.40
2017-08-21T14:29:10.299Z,21.30
2017-08-21T14:31:37.907Z,21.60
2017-08-21T14:34:05.431Z,21.70
2017-08-21T14:36:32.983Z,21.30
2017-08-21T14:39:00.514Z,21.00
2017-08-21T14:41:28.058Z,21.80
2017-08-21T14:43:55.581Z,22.10
2017-08-21T14:46:26.541Z,21.60
2017-08-21T14:48:54.080Z,22.20
2017-08-21T14:51:21.639Z,22.40
2017-08-21T14:53:49.167Z,22.10
2017-08-21T14:56:16.723Z,21.40
2017-08-21T14:58:44.255Z,21.20
2017-08-21T15:01:11.815Z,21.20
2017-08-21T15:03:39.351Z,21.00
2017-08-21T15:06:06.904Z,20.60
2017-08-21T15:08:34.431Z,20.70
2017-08-21T15:11:01.991Z,21.00
2017-08-21T15:13:29.523Z,21.00
2017-08-21T15:15:57.298Z,21.30
2017-08-21T15:18:24.829Z,21.20
2017-08-21T15:20:52.359Z,21.40
2017-08-21T15:23:19.906Z,21.30
2017-08-21T15:25:47.423Z,21.20
2017-08-21T15:28:14.975Z,21.20
2017-08-21T15:30:42.512Z,20.80
2017-08-21T15:33:10.091Z,21.30
2017-08-21T15:35:37.614Z,20.60
2017-08-21T15:38:05.169Z,20.30
2017-08-21T15:40:32.703Z,20.30
2017-08-21T15:43:00.279Z,20.60
2017-08-21T15:45:27.803Z,20.50
2017-08-21T15:47:55.354Z,20.50
2017-08-21T15:50:22.874Z,20.70
2017-08-21T15:52:50.455Z,21.50
2017-08-21T15:55:17.983Z,21.60
2017-08-21T15:57:45.547Z,21.40
2017-08-21T16:00:13.078Z,21.00
2017-08-21T16:02:40.639Z,21.30
2017-08-21T16:05:08.176Z,21.60
2017-08-21T16:07:35.728Z,21.70
2017-08-21T16:10:03.256Z,21.90
2017-08-21T16:12:30.810Z,21.80
2017-08-21T16:14:58.340Z,21.20
2017-08-21T16:17:25.862Z,21.40
2017-08-21T16:19:53.410Z,21.50
2017-08-21T16:22:20.935Z,21.50
2017-08-21T16:24:48.483Z,21.40
2017-08-21T16:27:16.019Z,21.30
2017-08-21T16:29:43.566Z,21.30
2017-08-21T16:32:11.100Z,21.20
2017-08-21T16:34:38.654Z,21.30
2017-08-21T16:37:06.178Z,20.80
2017-08-21T16:39:33.743Z,20.70
2017-08-21T16:42:01.267Z,20.90
2017-08-21T16:44:28.819Z,21.00
2017-08-21T16:46:56.344Z,20.80
2017-08-21T16:49:23.901Z,20.70
2017-08-21T16:51:51.439Z,20.90
2017-08-21T16:54:18.990Z,20.70
2017-08-21T16:56:46.523Z,20.60
2017-08-21T16:59:14.071Z,20.40
2017-08-21T17:01:41.599Z,20.40
2017-08-21T17:04:09.159Z,20.30
2017-08-21T17:06:36.687Z,20.40
2017-08-21T17:09:04.240Z,20.20
2017-08-21T17:11:31.772Z,20.10
2017-08-21T17:13:59.319Z,20.10
2017-08-21T17:16:26.851Z,20.10
2017-08-21T17:18:54.415Z,20.00
2017-08-21T17:21:21.942Z,19.70
2017-08-21T17:23:49.474Z,19.60
2017-08-21T17:26:17.027Z,19.80
2017-08-21T17:28:44.550Z,19.60
2017-08-21T17:31:12.105Z,19.60
2017-08-21T17:33:39.638Z,19.50
2017-08-21T17:36:08.367Z,19.50
2017-08-21T17:38:36.093Z,19.40
2017-08-21T17:41:03.655Z,19.30
2017-08-21T17:43:31.433Z,19.10
2017-08-21T17:45:58.990Z,18.80
2017-08-21T17:48:26.519Z,18.50
2017-08-21T17:50:54.071Z,18.50
2017-08-21T17:53:21.595Z,18.60
2017-08-21T17:55:49.143Z,18.50
2017-08-21T17:58:19.066Z,18.40
2017-08-21T18:00:46.628Z,18.40
2017-08-21T18:03:14.155Z,18.20
2017-08-21T18:05:41.728Z,18.10
2017-08-21T18:08:09.272Z,18.10
2017-08-21T18:10:36.814Z,17.90
2017-08-21T18:13:17.678Z,17.60
2017-08-21T18:15:45.235Z,17.40
2017-08-21T18:18:12.764Z,17.20
2017-08-21T18:20:40.324Z,17.10
2017-08-21T18:23:07.883Z,17.10
2017-08-21T18:25:35.410Z,17.00
2017-08-21T18:28:02.959Z,16.90
2017-08-21T18:30:30.485Z,16.90
2017-08-21T18:32:58.035Z,16.90
2017-08-21T18:35:25.570Z,16.70
2017-08-21T18:37:53.123Z,16.60
2017-08-21T18:40:20.671Z,16.60
2017-08-21T18:42:48.270Z,16.50
2017-08-21T18:45:15.829Z,16.50
2017-08-21T18:47:43.405Z,16.60
2017-08-21T18:50:10.970Z,16.60
2017-08-21T18:52:38.532Z,16.60
2017-08-21T18:55:06.061Z,16.50
2017-08-21T18:57:33.627Z,16.50
2017-08-21T19:00:01.164Z,16.50
2017-08-21T19:02:28.743Z,16.50
2017-08-21T19:04:56.286Z,16.50
2017-08-21T19:07:23.860Z,16.40
2017-08-21T19:09:51.383Z,16.40
2017-08-21T19:12:18.939Z,16.40
2017-08-21T19:14:46.470Z,16.40
2017-08-21T19:17:14.014Z,16.30
2017-08-21T19:19:41.534Z,16.30
2017-08-21T19:22:09.083Z,16.30
2017-08-21T19:24:36.611Z,16.30
2017-08-21T19:27:04.179Z,16.30
2017-08-21T19:29:31.702Z,16.40
2017-08-21T19:31:59.235Z,16.40
2017-08-21T19:34:26.795Z,16.50
2017-08-21T19:36:54.314Z,16.60
2017-08-21T19:39:21.874Z,16.60
2017-08-21T19:41:49.399Z,16.60
2017-08-21T19:44:16.947Z,16.70
2017-08-21T19:46:44.480Z,16.70
2017-08-21T19:49:12.035Z,16.80
2017-08-21T19:51:39.569Z,16.70
2017-08-21T19:54:07.118Z,16.70
2017-08-21T19:56:34.654Z,16.70
2017-08-21T19:59:02.226Z,16.70
2017-08-21T20:01:29.962Z,16.80
2017-08-21T20:03:58.693Z,16.90
2017-08-21T20:06:26.259Z,16.80
2017-08-21T20:08:53.821Z,16.80
2017-08-21T20:11:21.353Z,16.70
2017-08-21T20:13:52.751Z,16.70
2017-08-21T20:16:20.282Z,16.70
2017-08-21T20:18:47.853Z,16.80
2017-08-21T20:21:15.385Z,16.80
2017-08-21T20:23:42.939Z,16.70
2017-08-21T20:26:10.472Z,16.60
2017-08-21T20:28:38.087Z,16.60
2017-08-21T20:31:05.623Z,16.50
2017-08-21T20:33:33.150Z,16.50
2017-08-21T20:36:00.776Z,16.40
2017-08-21T20:38:28.306Z,16.40
2017-08-21T20:40:55.859Z,16.40
2017-08-21T20:43:23.388Z,16.40
2017-08-21T20:45:50.964Z,16.30
2017-08-21T20:48:18.508Z,16.20
2017-08-21T20:50:46.072Z,16.00
2017-08-21T20:53:13.622Z,15.80
2017-08-21T20:55:41.178Z,15.80
2017-08-21T20:58:08.706Z,15.80
2017-08-21T21:00:36.265Z,15.80
2017-08-21T21:03:03.803Z,15.80
2017-08-21T21:05:31.363Z,15.80
2017-08-21T21:07:58.894Z,15.80
2017-08-21T21:10:26.464Z,15.70
2017-08-21T21:12:53.996Z,15.70
2017-08-21T21:15:21.562Z,15.70
2017-08-21T21:17:49.097Z,15.80
2017-08-21T21:20:16.659Z,15.80
2017-08-21T21:22:44.181Z,15.70
2017-08-21T21:25:11.741Z,15.60
2017-08-21T21:27:39.268Z,15.60
2017-08-21T21:30:06.826Z,15.60
2017-08-21T21:32:34.355Z,15.70
2017-08-21T21:35:01.908Z,15.70
2017-08-21T21:37:29.439Z,15.80
2017-08-21T21:39:56.958Z,15.80
2017-08-21T21:42:24.626Z,15.90
2017-08-21T21:44:52.155Z,15.90
2017-08-21T21:47:19.713Z,15.90
2017-08-21T21:49:47.235Z,16.00
2017-08-21T21:52:14.854Z,16.00
2017-08-21T21:54:42.383Z,16.00
2017-08-21T21:57:09.942Z,15.90
2017-08-21T21:59:37.477Z,15.70
2017-08-21T22:02:05.024Z,15.60
2017-08-21T22:04:32.554Z,15.60
2017-08-21T22:07:00.107Z,15.70
2017-08-21T22:09:27.639Z,15.80
2017-08-21T22:11:55.187Z,15.70
2017-08-21T22:14:22.719Z,15.70
2017-08-21T22:16:50.280Z,15.70
2017-08-21T22:19:17.815Z,15.50
2017-08-21T22:21:45.363Z,15.50
2017-08-21T22:24:12.893Z,15.50
2017-08-21T22:26:40.447Z,15.60
2017-08-21T22:29:07.973Z,15.60
2017-08-21T22:51:44.984Z,15.30
2017-08-21T22:54:12.535Z,15.10
2017-08-21T22:56:40.068Z,15.10
2017-08-21T22:59:07.619Z,15.10
2017-08-21T23:01:52.951Z,15.20
2017-08-21T23:04:20.511Z,15.20
2017-08-21T23:06:48.048Z,15.20
2017-08-21T23:09:15.594Z,15.20
2017-08-21T23:11:43.138Z,15.30
2017-08-21T23:14:10.708Z,15.30
2017-08-21T23:16:38.231Z,15.20
2017-08-21T23:19:05.774Z,15.10
2017-08-21T23:21:33.303Z,15.00
2017-08-21T23:24:00.855Z,14.90
2017-08-21T23:26:28.379Z,14.90
2017-08-21T23:28:55.934Z,15.10
2017-08-21T23:31:23.460Z,15.20
2017-08-21T23:33:51.002Z,15.10
2017-08-21T23:36:18.530Z,15.10
2017-08-21T23:38:46.083Z,14.90
2017-08-21T23:41:13.602Z,14.80
2017-08-21T23:43:41.146Z,14.80
2017-08-21T23:46:08.666Z,15.00
2017-08-21T23:48:36.194Z,15.10
2017-08-21T23:51:03.739Z,15.10
2017-08-21T23:53:31.263Z,15.00
2017-08-21T23:55:58.814Z,15.10
2017-08-21T23:58:26.345Z,15.10
